Phoenix, Arizona
Traffic Map
Current Weather Conditions
Phoenix, Arizona
Clear
Clear
68°
Feels Like: 68°
Wind Chill: 68° Ceiling: Unl
Heat Index: 68° Visibility: 10mi
Dew Point: 53° Wind: 3mph
Humidity: 59% Direction: 160° (SSE)
Pressure: 29.84in Gusts: 0mph
Raw Report DataKPHX 301151Z 16003KT 10SM CLR 20/12 A2984 RMK AO2 SLP088 T02000117 10261 20194 55001
Traffic Incident Summary
Active as of:
Severity:
Category:
InformationThere was an issue retrieving the traffic information for this location. Please try a different location or try again shortly.
Advertisements
Track Severe Weather on mobile